Time;durP1;ratioP1;P1;durP2;ratioP2;P2;SDS_P1;SDS_P2;PMS_P1;PMS_P2;Temp;Humidity;BMP_temperature;BMP_pressure;BME280_temperature;BME280_humidity;BME280_pressure;Samples;Min_cycle;Max_cycle;Signal;HPM_P1;HPM_P2
2023/07/19 00:00:42;;;;;;;12.17;11.57;;;22.40;33.50;;;;;;4975200;28;20188;-64
2023/07/19 00:03:08;;;;;;;13.10;12.40;;;22.40;33.70;;;;;;4991136;28;20218;-64
2023/07/19 00:05:34;;;;;;;11.80;10.93;;;22.40;33.40;;;;;;4975059;28;20190;-64
2023/07/19 00:08:01;;;;;;;12.53;11.93;;;22.30;33.10;;;;;;4974791;28;20547;-64
2023/07/19 00:10:27;;;;;;;12.93;12.23;;;22.30;33.30;;;;;;4974845;28;20218;-64
2023/07/19 00:12:53;;;;;;;12.33;11.63;;;22.20;33.60;;;;;;4974910;28;20433;-63
2023/07/19 00:15:19;;;;;;;12.57;11.97;;;22.20;33.50;;;;;;4974778;28;20930;-61
2023/07/19 00:17:45;;;;;;;12.37;11.57;;;22.30;33.60;;;;;;4974858;28;20422;-61
2023/07/19 00:20:11;;;;;;;12.20;11.50;;;22.20;33.40;;;;;;4974629;28;20182;-61
2023/07/19 00:22:38;;;;;;;12.60;11.87;;;22.20;33.50;;;;;;4975987;28;20317;-61
2023/07/19 00:25:04;;;;;;;11.90;11.30;;;22.20;33.40;;;;;;4974597;28;20422;-61
2023/07/19 00:27:30;;;;;;;13.37;12.43;;;22.20;33.40;;;;;;4974610;28;20429;-62
2023/07/19 00:29:56;;;;;;;12.53;11.47;;;22.10;33.30;;;;;;4975641;28;20426;-62
2023/07/19 00:32:21;;;;;;;12.47;11.77;;;22.10;33.20;;;;;;4974486;28;20186;-62
2023/07/19 00:34:47;;;;;;;12.53;11.60;;;22.10;33.40;;;;;;4990689;28;20178;-61
2023/07/19 00:37:13;;;;;;;12.57;11.67;;;22.00;33.80;;;;;;4974428;28;20178;-62
2023/07/19 00:39:38;;;;;;;12.30;11.70;;;22.00;34.00;;;;;;4974196;28;20214;-61
2023/07/19 00:42:04;;;;;;;12.20;11.50;;;22.00;34.00;;;;;;4974484;28;20190;-61
2023/07/19 00:44:30;;;;;;;12.77;11.83;;;22.00;33.90;;;;;;4974364;28;20640;-61
2023/07/19 00:46:59;;;;;;;12.70;12.00;;;22.00;33.20;;;;;;4974395;28;20239;-61
2023/07/19 00:49:25;;;;;;;13.40;12.33;;;22.00;33.20;;;;;;4974192;28;20798;-61
2023/07/19 00:51:50;;;;;;;12.00;11.30;;;22.00;33.10;;;;;;4974160;28;21020;-62
2023/07/19 00:54:17;;;;;;;12.57;11.87;;;21.90;34.20;;;;;;4974078;28;20415;-61
2023/07/19 00:56:44;;;;;;;12.83;12.03;;;21.70;35.50;;;;;;4974154;28;20178;-63
2023/07/19 00:59:14;;;;;;;13.23;12.00;;;21.60;36.50;;;;;;4973834;28;20417;-64
2023/07/19 01:01:41;;;;;;;12.53;11.93;;;21.40;37.10;;;;;;4974207;28;20429;-64
2023/07/19 01:04:07;;;;;;;12.33;11.63;;;21.40;37.20;;;;;;4973948;28;20425;-61
2023/07/19 01:06:33;;;;;;;12.37;11.70;;;21.40;37.60;;;;;;4973994;28;20479;-62
2023/07/19 01:08:59;;;;;;;13.20;12.50;;;21.30;37.60;;;;;;4975051;28;20189;-61
2023/07/19 01:11:24;;;;;;;13.33;12.57;;;21.20;37.70;;;;;;4973874;28;20734;-61
2023/07/19 01:13:51;;;;;;;13.13;12.37;;;21.20;38.30;;;;;;4973913;28;20179;-61
2023/07/19 01:16:17;;;;;;;13.43;12.73;;;21.20;38.30;;;;;;4973702;28;20206;-61
2023/07/19 01:18:43;;;;;;;12.13;11.43;;;21.20;38.30;;;;;;4989897;28;20963;-61
2023/07/19 01:21:09;;;;;;;12.33;11.63;;;21.30;38.00;;;;;;4973651;28;20222;-61
2023/07/19 01:23:35;;;;;;;11.83;11.23;;;21.50;37.40;;;;;;4973615;28;20225;-61
2023/07/19 01:26:01;;;;;;;12.23;11.53;;;21.60;36.30;;;;;;4973605;28;20473;-61
2023/07/19 01:28:26;;;;;;;12.77;11.80;;;21.70;35.70;;;;;;4973293;28;20187;-61
2023/07/19 01:30:52;;;;;;;12.93;12.00;;;21.70;35.60;;;;;;4973548;28;20478;-61
2023/07/19 01:33:18;;;;;;;13.20;12.20;;;21.80;35.10;;;;;;4973374;28;20182;-61
2023/07/19 01:35:44;;;;;;;13.10;12.30;;;21.80;35.00;;;;;;4973416;28;20179;-61
2023/07/19 01:38:10;;;;;;;12.60;11.77;;;21.80;34.60;;;;;;4973066;28;20181;-61
2023/07/19 01:40:36;;;;;;;12.57;11.87;;;21.80;34.30;;;;;;4973453;28;20911;-61
2023/07/19 01:43:02;;;;;;;13.17;12.47;;;21.80;34.30;;;;;;4973393;28;20186;-61
2023/07/19 01:45:27;;;;;;;12.33;11.60;;;21.90;34.40;;;;;;4973235;28;20183;-61
2023/07/19 01:47:53;;;;;;;13.47;12.67;;;21.80;34.30;;;;;;4973063;28;20651;-62
2023/07/19 01:50:19;;;;;;;13.33;12.63;;;21.80;34.40;;;;;;4973002;28;20241;-61
2023/07/19 01:52:44;;;;;;;13.33;12.30;;;21.80;35.00;;;;;;4973106;28;20187;-61
2023/07/19 01:55:10;;;;;;;13.13;12.43;;;21.80;34.90;;;;;;4989184;28;20182;-61
2023/07/19 01:57:36;;;;;;;12.77;12.07;;;21.80;35.10;;;;;;4973039;28;20282;-61
2023/07/19 02:00:03;;;;;;;12.50;11.70;;;21.80;35.00;;;;;;4973742;28;20191;-62
2023/07/19 02:02:29;;;;;;;12.43;11.53;;;21.80;35.00;;;;;;4972929;28;20183;-62
2023/07/19 02:04:54;;;;;;;12.80;11.90;;;21.90;35.00;;;;;;4989113;28;20504;-62
2023/07/19 02:07:20;;;;;;;12.30;11.60;;;21.80;34.20;;;;;;4972818;28;20212;-62
2023/07/19 02:09:46;;;;;;;12.77;12.00;;;21.70;35.20;;;;;;4972458;28;20289;-62
2023/07/19 02:12:12;;;;;;;12.23;11.63;;;21.70;35.10;;;;;;4972732;28;20263;-64
2023/07/19 02:14:38;;;;;;;13.43;12.63;;;21.80;34.80;;;;;;4972824;28;20450;-64
2023/07/19 02:17:04;;;;;;;12.70;12.00;;;21.80;34.80;;;;;;4972578;28;20630;-64
2023/07/19 02:19:29;;;;;;;12.83;12.03;;;21.80;34.70;;;;;;4972511;28;20448;-64
2023/07/19 02:21:55;;;;;;;12.30;11.60;;;21.70;34.70;;;;;;4972613;28;20422;-64
2023/07/19 02:24:21;;;;;;;13.90;12.90;;;21.60;35.30;;;;;;4972457;28;20182;-64
2023/07/19 02:26:46;;;;;;;12.77;12.07;;;21.40;35.50;;;;;;4988728;28;20179;-64
2023/07/19 02:29:12;;;;;;;12.63;12.03;;;21.30;35.70;;;;;;4988339;28;20269;-64
2023/07/19 02:31:38;;;;;;;14.63;13.23;;;21.30;35.90;;;;;;4972329;28;20213;-64
2023/07/19 02:34:09;;;;;;;13.10;12.40;;;21.10;35.30;;;;;;4988429;28;20205;-64
2023/07/19 02:36:35;;;;;;;13.53;12.73;;;21.00;36.00;;;;;;4972456;28;20273;-64
2023/07/19 02:39:03;;;;;;;12.73;12.13;;;21.10;36.30;;;;;;4972042;28;20557;-64
2023/07/19 02:41:29;;;;;;;12.57;11.80;;;21.20;36.20;;;;;;4972337;28;20190;-62
2023/07/19 02:43:55;;;;;;;13.20;12.40;;;21.30;35.90;;;;;;4972332;28;20505;-62
2023/07/19 02:46:20;;;;;;;13.07;12.37;;;21.30;35.60;;;;;;4972212;28;20585;-63
2023/07/19 02:48:46;;;;;;;13.33;12.53;;;21.40;34.80;;;;;;4972237;28;20185;-63
2023/07/19 02:51:12;;;;;;;13.10;12.30;;;21.40;34.00;;;;;;4972228;28;20224;-62
2023/07/19 02:53:38;;;;;;;13.63;12.60;;;21.50;33.70;;;;;;4972326;28;20273;-63
2023/07/19 02:56:03;;;;;;;13.20;12.60;;;21.50;33.40;;;;;;4972290;28;20555;-61
2023/07/19 02:58:29;;;;;;;13.23;12.33;;;21.50;32.90;;;;;;4971976;28;20414;-61
2023/07/19 03:00:55;;;;;;;13.10;12.20;;;21.60;32.50;;;;;;4972207;28;20528;-61
2023/07/19 03:03:21;;;;;;;13.43;12.73;;;21.60;32.20;;;;;;4972234;28;20241;-60
2023/07/19 03:05:46;;;;;;;12.93;12.17;;;21.60;32.10;;;;;;4972244;28;20625;-61
2023/07/19 03:08:13;;;;;;;13.83;13.03;;;21.60;31.20;;;;;;4988038;28;20418;-60
2023/07/19 03:10:39;;;;;;;13.47;12.77;;;21.60;31.20;;;;;;4972166;28;20225;-61
2023/07/19 03:13:05;;;;;;;13.80;13.00;;;21.60;31.70;;;;;;4975494;28;20417;-61
2023/07/19 03:15:33;;;;;;;13.67;12.87;;;21.60;31.80;;;;;;4976164;28;20799;-60
2023/07/19 03:18:00;;;;;;;13.47;12.70;;;21.60;31.80;;;;;;4975953;28;20480;-61
2023/07/19 03:20:25;;;;;;;13.30;12.60;;;21.50;31.70;;;;;;4976170;28;20418;-60
2023/07/19 03:22:51;;;;;;;12.97;12.20;;;21.50;31.20;;;;;;4976273;28;20464;-60
2023/07/19 03:25:17;;;;;;;12.37;11.57;;;21.50;31.20;;;;;;4992323;28;20667;-60
2023/07/19 03:27:43;;;;;;;13.10;12.10;;;21.50;31.20;;;;;;4976163;28;20202;-62
2023/07/19 03:30:09;;;;;;;12.60;11.90;;;21.50;31.20;;;;;;4975933;28;20206;-62
2023/07/19 03:32:35;;;;;;;12.60;12.00;;;21.50;31.20;;;;;;4976198;28;20175;-61
2023/07/19 03:35:01;;;;;;;12.37;11.67;;;21.50;31.20;;;;;;4992632;28;20421;-61
2023/07/19 03:37:27;;;;;;;11.87;11.27;;;21.50;31.20;;;;;;4976657;28;20263;-61
2023/07/19 03:39:53;;;;;;;13.10;12.17;;;21.50;31.20;;;;;;4977210;28;20191;-61
2023/07/19 03:42:19;;;;;;;12.60;12.00;;;21.50;31.20;;;;;;4976643;28;20418;-61
2023/07/19 03:44:45;;;;;;;12.80;12.10;;;21.50;30.80;;;;;;4975773;28;20434;-63
2023/07/19 03:47:11;;;;;;;13.27;12.57;;;21.50;30.70;;;;;;4975579;28;20195;-64
2023/07/19 03:49:36;;;;;;;11.60;10.90;;;21.50;30.50;;;;;;4975312;28;20183;-63
2023/07/19 03:52:02;;;;;;;12.20;11.60;;;21.30;31.00;;;;;;4991804;28;20815;-63
2023/07/19 03:54:28;;;;;;;11.63;10.93;;;21.00;31.70;;;;;;4975570;28;20221;-63
2023/07/19 03:56:53;;;;;;;13.57;12.70;;;20.90;32.70;;;;;;4975387;28;20230;-63
2023/07/19 03:59:19;;;;;;;12.13;11.43;;;20.80;33.40;;;;;;4974831;28;20584;-63
2023/07/19 04:01:45;;;;;;;12.27;11.47;;;20.90;32.90;;;;;;4991281;28;20204;-63
2023/07/19 04:04:10;;;;;;;12.83;12.03;;;21.00;32.50;;;;;;4975036;28;20652;-64
2023/07/19 04:06:36;;;;;;;12.37;11.67;;;21.10;32.00;;;;;;4991092;28;20225;-64
2023/07/19 04:09:02;;;;;;;11.63;10.90;;;21.10;31.40;;;;;;4991085;28;20551;-64
2023/07/19 04:11:29;;;;;;;10.87;10.37;;;21.20;31.30;;;;;;4974718;28;20296;-64
2023/07/19 04:13:54;;;;;;;13.00;12.30;;;21.20;31.80;;;;;;4974907;28;20429;-64
2023/07/19 04:16:21;;;;;;;12.83;12.03;;;21.20;31.60;;;;;;4974692;28;20923;-61
2023/07/19 04:18:47;;;;;;;12.80;11.90;;;21.00;30.70;;;;;;4974741;28;20274;-61
2023/07/19 04:21:12;;;;;;;12.33;11.53;;;20.80;31.40;;;;;;4974859;28;20426;-61
2023/07/19 04:23:38;;;;;;;12.63;11.83;;;20.70;31.70;;;;;;4974974;28;20223;-61
2023/07/19 04:26:05;;;;;;;13.57;12.77;;;20.70;31.50;;;;;;4975045;28;20186;-63
2023/07/19 04:28:31;;;;;;;12.27;11.43;;;20.60;31.70;;;;;;4974807;28;20205;-63
2023/07/19 04:30:56;;;;;;;13.77;12.67;;;20.60;31.40;;;;;;4974785;28;20983;-64
2023/07/19 04:33:22;;;;;;;12.30;11.60;;;20.50;31.70;;;;;;4974660;28;20418;-61
2023/07/19 04:35:49;;;;;;;11.33;10.70;;;20.50;31.90;;;;;;4974507;28;20185;-60
2023/07/19 04:38:15;;;;;;;12.90;12.10;;;20.40;32.40;;;;;;4974502;28;20175;-64
2023/07/19 04:40:41;;;;;;;12.83;12.03;;;20.40;32.70;;;;;;4974739;28;20460;-63
2023/07/19 04:43:07;;;;;;;13.87;13.13;;;20.40;32.30;;;;;;4975488;28;20426;-64
2023/07/19 04:45:32;;;;;;;13.37;12.30;;;20.40;32.10;;;;;;4974339;28;20426;-63
2023/07/19 04:47:58;;;;;;;12.30;11.60;;;20.60;32.80;;;;;;4974546;28;20193;-63
2023/07/19 04:50:24;;;;;;;12.70;11.97;;;20.70;32.00;;;;;;4990577;28;20652;-63
2023/07/19 04:52:53;;;;;;;12.23;11.63;;;20.90;31.30;;;;;;4974599;28;20179;-64
2023/07/19 04:55:20;;;;;;;12.27;11.40;;;21.00;30.80;;;;;;4974420;28;20457;-63
2023/07/19 04:57:46;;;;;;;12.10;11.33;;;21.00;30.70;;;;;;4974328;28;20805;-63
2023/07/19 05:00:12;;;;;;;12.93;12.13;;;21.10;30.80;;;;;;4973896;28;20434;-63
2023/07/19 05:02:39;;;;;;;12.97;12.07;;;21.20;30.90;;;;;;4974123;28;20178;-64
2023/07/19 05:05:08;;;;;;;13.23;12.43;;;21.30;31.00;;;;;;4973927;28;20422;-61
2023/07/19 05:07:35;;;;;;;13.33;12.50;;;21.30;31.00;;;;;;4973980;28;20516;-60
2023/07/19 05:10:02;;;;;;;12.30;11.60;;;21.40;31.10;;;;;;4973562;28;20441;-60
2023/07/19 05:12:29;;;;;;;13.90;13.20;;;21.50;30.50;;;;;;4973702;28;20520;-60
2023/07/19 05:14:55;;;;;;;13.57;12.73;;;21.50;29.70;;;;;;4973870;28;20422;-60
2023/07/19 05:17:21;;;;;;;13.80;12.90;;;21.60;29.60;;;;;;4973693;28;20747;-59
2023/07/19 05:19:47;;;;;;;13.57;12.77;;;21.60;29.50;;;;;;4973504;28;20508;-59
2023/07/19 05:22:12;;;;;;;12.87;12.10;;;21.60;29.30;;;;;;4973681;28;20189;-59
2023/07/19 05:24:38;;;;;;;12.83;12.00;;;21.60;29.00;;;;;;4973753;28;20183;-59
2023/07/19 05:27:04;;;;;;;13.63;12.83;;;21.60;29.00;;;;;;4973820;28;20187;-59
2023/07/19 05:29:29;;;;;;;13.80;12.90;;;21.70;29.20;;;;;;4973303;28;20679;-63
2023/07/19 05:31:55;;;;;;;11.97;11.37;;;21.70;29.00;;;;;;4973431;28;20457;-63
2023/07/19 05:34:22;;;;;;;13.93;13.13;;;21.70;29.00;;;;;;4973290;28;20182;-64
2023/07/19 05:36:48;;;;;;;12.80;11.90;;;21.70;28.70;;;;;;4972944;28;20179;-64
2023/07/19 05:39:14;;;;;;;12.43;11.70;;;21.70;28.60;;;;;;4970451;28;20436;-64
2023/07/19 05:41:39;;;;;;;12.17;11.43;;;21.80;29.00;;;;;;4958075;28;20183;-63
2023/07/19 05:44:05;;;;;;;12.27;11.67;;;21.80;29.00;;;;;;4952709;28;20310;-64
2023/07/19 05:46:34;;;;;;;12.13;11.43;;;21.80;28.50;;;;;;4953598;28;20202;-63
2023/07/19 05:48:59;;;;;;;12.50;11.90;;;21.90;28.70;;;;;;4967198;28;20187;-63
2023/07/19 05:51:25;;;;;;;12.77;12.17;;;21.90;28.10;;;;;;4972505;28;20458;-65
2023/07/19 05:53:51;;;;;;;13.50;12.60;;;21.90;28.40;;;;;;4972051;28;20186;-62
2023/07/19 05:56:17;;;;;;;12.87;12.07;;;22.00;28.20;;;;;;4972152;28;20220;-63
2023/07/19 05:58:42;;;;;;;12.53;11.63;;;22.00;28.40;;;;;;4973598;28;20182;-63
2023/07/19 06:01:09;;;;;;;12.73;11.50;;;22.00;28.10;;;;;;4972246;28;20190;-63
2023/07/19 06:03:35;;;;;;;11.40;10.60;;;22.00;27.80;;;;;;4972268;28;20273;-63
2023/07/19 06:06:05;;;;;;;12.33;11.60;;;22.10;25.70;;;;;;4972139;28;20461;-63
2023/07/19 06:08:32;;;;;;;11.63;10.93;;;22.20;25.60;;;;;;4971939;28;20576;-63
2023/07/19 06:10:58;;;;;;;11.30;10.80;;;22.20;25.40;;;;;;4972163;28;20572;-59
2023/07/19 06:13:24;;;;;;;11.83;11.13;;;22.30;25.70;;;;;;4973654;28;20510;-59
2023/07/19 06:15:49;;;;;;;12.20;11.40;;;22.40;25.00;;;;;;4972081;28;20433;-59
2023/07/19 06:18:15;;;;;;;12.23;11.53;;;22.40;24.60;;;;;;4971948;28;20265;-59
2023/07/19 06:20:41;;;;;;;12.10;11.50;;;22.50;24.40;;;;;;4972086;28;20193;-59
2023/07/19 06:23:07;;;;;;;12.63;11.90;;;22.60;25.60;;;;;;4971919;28;20636;-59
2023/07/19 06:25:32;;;;;;;12.27;11.67;;;22.60;25.20;;;;;;4971875;28;20189;-59
2023/07/19 06:27:59;;;;;;;13.60;12.90;;;22.70;24.50;;;;;;4987936;28;20183;-60
2023/07/19 06:30:24;;;;;;;13.07;12.40;;;22.70;24.70;;;;;;4971648;28;20237;-59
2023/07/19 06:32:50;;;;;;;13.50;12.60;;;22.80;25.60;;;;;;4971948;28;20418;-60
2023/07/19 06:35:16;;;;;;;13.30;12.20;;;22.80;25.00;;;;;;4959333;28;20187;-59
2023/07/19 06:37:43;;;;;;;12.90;12.30;;;22.90;24.90;;;;;;4952446;29;20179;-59
2023/07/19 06:40:09;;;;;;;12.87;12.07;;;23.00;24.40;;;;;;4952068;28;20179;-64
2023/07/19 06:42:36;;;;;;;12.93;12.23;;;23.00;23.00;;;;;;4952504;29;20450;-60
2023/07/19 06:45:02;;;;;;;12.33;11.73;;;23.20;22.20;;;;;;4952711;28;20861;-60
2023/07/19 06:47:29;;;;;;;13.27;12.30;;;23.30;21.80;;;;;;4951915;28;20839;-60
2023/07/19 06:49:56;;;;;;;12.33;11.43;;;23.40;22.00;;;;;;4960573;28;20928;-58
2023/07/19 06:52:23;;;;;;;13.30;12.10;;;23.50;21.60;;;;;;4952692;28;20423;-60
2023/07/19 06:54:49;;;;;;;12.30;11.50;;;23.60;21.50;;;;;;4952716;29;20427;-58
2023/07/19 06:57:14;;;;;;;11.20;10.50;;;23.70;22.20;;;;;;4952468;29;20425;-59
2023/07/19 06:59:40;;;;;;;12.57;11.73;;;23.70;21.00;;;;;;4950632;28;20210;-59
2023/07/19 07:02:06;;;;;;;12.57;11.80;;;23.70;20.90;;;;;;4951494;28;20626;-59
2023/07/19 07:04:32;;;;;;;11.90;11.30;;;23.80;21.10;;;;;;4949260;28;20434;-59
2023/07/19 07:06:57;;;;;;;11.50;10.93;;;23.80;21.00;;;;;;4951673;28;20605;-59
2023/07/19 07:09:23;;;;;;;11.17;10.67;;;23.80;20.00;;;;;;4951323;28;20541;-62
2023/07/19 07:11:49;;;;;;;11.17;10.63;;;23.90;20.00;;;;;;4952775;28;20211;-62
2023/07/19 07:14:14;;;;;;;11.37;10.57;;;23.90;20.10;;;;;;4967465;28;20223;-63
2023/07/19 07:16:40;;;;;;;11.23;10.63;;;23.90;19.40;;;;;;4961500;28;20185;-63
2023/07/19 07:19:06;;;;;;;11.43;10.53;;;24.10;18.60;;;;;;4969151;28;20187;-64
2023/07/19 07:21:31;;;;;;;11.23;10.53;;;24.10;18.80;;;;;;4972082;28;20259;-63
2023/07/19 07:23:57;;;;;;;12.40;11.33;;;24.10;19.30;;;;;;4968891;28;20592;-63
2023/07/19 07:26:23;;;;;;;11.53;10.93;;;24.10;19.50;;;;;;4964677;28;20183;-63
2023/07/19 07:28:48;;;;;;;10.93;10.33;;;24.10;18.00;;;;;;4949393;29;20183;-63
2023/07/19 07:31:14;;;;;;;10.37;9.67;;;24.10;18.40;;;;;;4967037;28;20719;-62
2023/07/19 07:33:40;;;;;;;9.63;9.20;;;24.20;17.10;;;;;;4952863;29;20179;-63
2023/07/19 07:36:06;;;;;;;8.97;8.40;;;24.20;15.90;;;;;;4951259;29;20179;-60
2023/07/19 07:38:32;;;;;;;9.10;8.30;;;24.30;16.00;;;;;;4951319;29;20440;-58
2023/07/19 07:41:05;;;;;;;8.97;8.57;;;24.30;14.60;;;;;;4951046;29;20429;-58
2023/07/19 07:43:31;;;;;;;9.93;9.27;;;24.30;13.30;;;;;;4951412;28;20944;-58
2023/07/19 07:45:57;;;;;;;8.70;8.30;;;24.40;13.20;;;;;;4951083;28;20435;-59
2023/07/19 07:48:23;;;;;;;9.07;8.67;;;24.40;13.40;;;;;;4951096;29;20433;-59
2023/07/19 07:50:51;;;;;;;8.53;8.03;;;24.40;13.20;;;;;;4951181;28;20467;-60
2023/07/19 07:53:21;;;;;;;9.07;8.13;;;24.50;12.60;;;;;;4951046;29;20443;-59
2023/07/19 07:55:48;;;;;;;8.30;8.00;;;24.50;11.70;;;;;;4951678;29;20419;-59
2023/07/19 07:58:14;;;;;;;8.63;8.20;;;24.50;11.70;;;;;;4956196;28;20457;-59
2023/07/19 08:00:41;;;;;;;9.07;8.37;;;24.60;11.60;;;;;;4960285;28;20444;-59
2023/07/19 08:03:06;;;;;;;8.70;8.10;;;24.60;11.50;;;;;;4974654;28;20422;-59
2023/07/19 08:05:32;;;;;;;8.10;7.70;;;24.70;11.20;;;;;;4960211;28;20481;-59
2023/07/19 08:07:58;;;;;;;8.00;7.60;;;24.70;10.40;;;;;;4956556;29;20183;-59
2023/07/19 08:10:24;;;;;;;7.07;6.77;;;24.80;8.80;;;;;;4955297;28;20479;-60
2023/07/19 08:12:50;;;;;;;7.70;7.20;;;24.90;8.70;;;;;;4974377;28;20234;-59
2023/07/19 08:15:16;;;;;;;6.97;6.67;;;24.90;8.10;;;;;;4974501;28;20648;-59
2023/07/19 08:17:41;;;;;;;7.37;6.80;;;24.90;8.20;;;;;;4974485;28;20183;-59
2023/07/19 08:20:09;;;;;;;8.10;7.70;;;24.90;8.10;;;;;;4970204;28;20531;-59
2023/07/19 08:22:37;;;;;;;7.87;7.53;;;25.00;7.90;;;;;;4955322;29;20622;-59
2023/07/19 08:25:04;;;;;;;8.33;7.93;;;25.00;7.60;;;;;;4956342;28;20971;-60
2023/07/19 08:27:29;;;;;;;8.00;7.60;;;25.10;7.30;;;;;;4955200;28;20427;-60
2023/07/19 08:29:55;;;;;;;7.87;7.57;;;25.10;7.60;;;;;;4974702;28;20539;-59
2023/07/19 08:32:21;;;;;;;8.00;7.60;;;25.20;7.30;;;;;;4975476;28;20311;-59
2023/07/19 08:34:47;;;;;;;8.00;7.40;;;25.20;7.40;;;;;;4974281;28;20726;-57
2023/07/19 08:37:12;;;;;;;7.80;7.50;;;25.20;7.10;;;;;;4955863;28;20675;-59
2023/07/19 08:39:38;;;;;;;7.87;7.30;;;25.30;6.50;;;;;;4954886;28;20183;-59
2023/07/19 08:42:04;;;;;;;7.67;7.27;;;25.60;6.20;;;;;;4955012;28;20187;-59
2023/07/19 08:44:30;;;;;;;7.47;6.97;;;25.60;6.50;;;;;;4954818;28;20242;-62
2023/07/19 08:46:57;;;;;;;7.70;7.37;;;25.60;5.60;;;;;;4954934;28;20785;-62
2023/07/19 08:49:23;;;;;;;7.53;7.23;;;25.80;3.60;;;;;;4954739;28;20411;-62
2023/07/19 08:51:49;;;;;;;7.67;6.90;;;25.90;3.90;;;;;;4954809;28;20466;-62
2023/07/19 08:54:15;;;;;;;7.80;7.50;;;25.80;4.60;;;;;;4954593;28;20423;-63
2023/07/19 08:56:44;;;;;;;8.63;7.40;;;25.80;4.90;;;;;;4944112;28;20424;-62
2023/07/19 08:59:10;;;;;;;8.83;8.20;;;25.80;5.10;;;;;;4935496;29;20275;-63
2023/07/19 09:01:36;;;;;;;7.60;7.20;;;26.10;4.20;;;;;;4935409;29;20953;-63
2023/07/19 09:04:09;;;;;;;8.00;7.50;;;26.10;4.30;;;;;;4935455;29;20792;-63
2023/07/19 09:06:34;;;;;;;8.47;7.87;;;26.00;4.90;;;;;;4935417;29;20188;-63
2023/07/19 09:09:01;;;;;;;8.50;8.10;;;25.90;4.50;;;;;;4940138;28;20452;-64
2023/07/19 09:11:27;;;;;;;11.33;7.87;;;25.90;4.70;;;;;;4970863;28;20206;-62
2023/07/19 09:13:54;;;;;;;7.83;7.43;;;25.90;4.70;;;;;;4973184;28;20421;-63
2023/07/19 09:16:49;;;;;;;7.30;7.00;;;25.90;4.00;;;;;;4972800;28;20238;-63
2023/07/19 09:19:14;;;;;;;7.73;7.33;;;25.80;4.10;;;;;;4987347;28;20437;-63
2023/07/19 09:21:43;;;;;;;7.73;7.43;;;25.80;3.90;;;;;;4973127;28;20418;-63
2023/07/19 09:24:11;;;;;;;10.13;9.33;;;26.00;3.00;;;;;;4972949;28;20187;-62
2023/07/19 09:26:44;;;;;;;22.50;20.40;;;26.10;2.90;;;;;;4974054;28;20426;-62
2023/07/19 09:29:11;;;;;;;202.50;135.87;;;26.20;3.20;;;;;;4972501;28;20422;-63
2023/07/19 09:31:56;;;;;;;182.23;101.93;;;26.10;2.90;;;;;;4972730;28;20469;-59
2023/07/19 09:34:25;;;;;;;13.90;12.20;;;26.10;2.80;;;;;;4972599;28;20432;-59
2023/07/19 09:36:52;;;;;;;8.33;7.73;;;26.10;2.10;;;;;;4964479;28;20483;-59
2023/07/19 09:39:18;;;;;;;10.00;9.30;;;26.10;1.60;;;;;;4952924;29;20451;-59
2023/07/19 09:41:47;;;;;;;6.80;6.50;;;26.10;2.00;;;;;;4969375;28;20420;-59
2023/07/19 09:44:17;;;;;;;7.00;6.70;;;26.00;2.30;;;;;;4953023;29;20790;-59
2023/07/19 09:46:45;;;;;;;7.93;7.63;;;26.00;2.30;;;;;;4953245;28;20435;-59
2023/07/19 09:49:11;;;;;;;8.40;8.00;;;26.00;2.10;;;;;;4952716;28;20423;-59
2023/07/19 09:51:42;;;;;;;7.90;7.20;;;26.00;2.60;;;;;;4953090;28;20884;-59
2023/07/19 09:54:10;;;;;;;7.40;6.97;;;26.10;2.70;;;;;;4952941;28;20430;-59
2023/07/19 09:56:38;;;;;;;7.53;7.13;;;26.30;1.80;;;;;;4953098;28;20518;-63
2023/07/19 09:59:08;;;;;;;7.57;7.27;;;26.40;2.00;;;;;;4952678;29;20792;-62
2023/07/19 10:01:35;;;;;;;7.70;7.30;;;26.60;2.20;;;;;;4953660;29;20504;-63
2023/07/19 10:04:01;;;;;;;8.40;7.80;;;26.70;1.90;;;;;;4953510;28;20427;-63
2023/07/19 10:06:30;;;;;;;7.87;7.57;;;26.80;1.70;;;;;;4953000;29;20429;-63
2023/07/19 10:09:21;;;;;;;8.10;7.70;;;27.00;1.40;;;;;;4952969;28;20233;-62
2023/07/19 10:11:49;;;;;;;7.07;6.87;;;27.30;1.00;;;;;;4953044;29;20474;-63
2023/07/19 10:14:25;;;;;;;6.80;6.40;;;27.40;1.00;;;;;;4953324;28;20431;-64
2023/07/19 10:16:58;;;;;;;7.77;7.27;;;27.80;1.00;;;;;;4953729;29;20505;-63
2023/07/19 10:19:24;;;;;;;8.10;7.30;;;28.00;1.00;;;;;;4953094;28;20574;-63
2023/07/19 10:22:04;;;;;;;7.03;6.50;;;28.30;1.00;;;;;;4953205;28;20469;-63
2023/07/19 10:24:31;;;;;;;8.10;7.17;;;28.40;1.00;;;;;;4953280;29;20522;-59
2023/07/19 10:27:01;;;;;;;7.77;7.17;;;28.50;1.00;;;;;;4952942;28;20430;-60
2023/07/19 10:29:36;;;;;;;7.93;7.47;;;28.60;1.00;;;;;;4952822;28;20427;-60
2023/07/19 10:32:03;;;;;;;7.40;7.10;;;28.70;1.00;;;;;;4953175;29;20875;-60
2023/07/19 10:34:29;;;;;;;7.73;7.20;;;28.70;1.00;;;;;;4969233;28;20450;-59
2023/07/19 10:37:03;;;;;;;7.37;7.00;;;28.70;1.00;;;;;;4952164;29;20458;-59
2023/07/19 10:39:30;;;;;;;7.83;7.43;;;28.60;1.00;;;;;;4952899;29;20245;-59
2023/07/19 10:41:56;;;;;;;8.13;7.67;;;28.70;1.00;;;;;;4953326;28;20547;-59
2023/07/19 10:44:22;;;;;;;8.50;8.20;;;28.80;1.00;;;;;;4952758;28;20430;-63
2023/07/19 10:46:48;;;;;;;8.10;7.60;;;28.90;1.00;;;;;;4953058;28;20427;-63
2023/07/19 10:49:14;;;;;;;8.50;8.00;;;28.90;1.00;;;;;;4952591;28;20187;-63
2023/07/19 10:51:54;;;;;;;14.43;7.70;;;28.70;1.00;;;;;;4952979;29;20218;-63
2023/07/19 10:54:20;;;;;;;8.63;8.13;;;28.80;1.00;;;;;;4952992;28;20890;-63
2023/07/19 10:56:53;;;;;;;10.90;8.80;;;28.70;1.00;;;;;;4952823;28;20454;-63
2023/07/19 10:59:19;;;;;;;7.47;7.07;;;28.70;1.00;;;;;;4952487;28;20932;-63
2023/07/19 11:01:48;;;;;;;8.20;7.60;;;28.80;1.00;;;;;;4969094;28;20955;-63
2023/07/19 11:04:14;;;;;;;7.97;7.47;;;28.70;1.00;;;;;;4952628;28;20431;-64
2023/07/19 11:06:56;;;;;;;8.50;8.00;;;28.70;1.00;;;;;;4953062;28;20762;-63
2023/07/19 11:09:22;;;;;;;8.17;7.57;;;29.00;1.00;;;;;;4952381;29;21254;-62
2023/07/19 11:11:49;;;;;;;10.73;7.20;;;29.10;1.00;;;;;;4952703;28;20847;-63
2023/07/19 11:14:32;;;;;;;7.83;7.43;;;29.10;1.00;;;;;;4952413;28;20438;-63
2023/07/19 11:16:58;;;;;;;8.33;7.73;;;29.10;1.00;;;;;;4952657;28;20419;-64
2023/07/19 11:19:38;;;;;;;8.50;8.07;;;28.90;1.00;;;;;;4952221;28;20447;-64
2023/07/19 11:22:08;;;;;;;10.10;8.40;;;28.70;1.00;;;;;;4952495;29;20827;-64
2023/07/19 11:24:38;;;;;;;10.10;8.13;;;28.60;1.00;;;;;;4952354;28;20422;-60
2023/07/19 11:27:06;;;;;;;8.20;7.90;;;28.60;1.00;;;;;;4952454;28;20510;-60
2023/07/19 11:29:32;;;;;;;8.97;8.37;;;28.60;1.00;;;;;;4952237;28;20900;-60
2023/07/19 11:32:20;;;;;;;8.10;7.70;;;28.60;1.00;;;;;;4952418;28;20470;-60
2023/07/19 11:34:51;;;;;;;8.00;7.40;;;28.50;1.00;;;;;;4971702;28;20430;-60
2023/07/19 11:37:28;;;;;;;7.73;7.33;;;28.30;1.20;;;;;;4955874;29;20529;-60
2023/07/19 11:39:57;;;;;;;8.00;7.63;;;28.20;1.50;;;;;;4956053;28;20834;-60
2023/07/19 11:42:38;;;;;;;7.30;7.00;;;28.30;1.20;;;;;;4955597;28;20831;-60
2023/07/19 11:45:25;;;;;;;8.20;7.73;;;28.30;1.30;;;;;;4971876;28;20537;-60
2023/07/19 11:47:55;;;;;;;8.80;8.20;;;28.20;1.00;;;;;;4956101;28;20431;-61
2023/07/19 11:50:22;;;;;;;9.60;8.70;;;28.00;1.80;;;;;;4955871;28;20430;-60
2023/07/19 11:52:54;;;;;;;8.40;7.80;;;27.90;1.80;;;;;;4956133;28;20485;-60
2023/07/19 11:55:21;;;;;;;7.80;7.50;;;27.80;2.40;;;;;;4949827;28;20454;-60
2023/07/19 11:57:49;;;;;;;8.00;7.60;;;27.70;2.10;;;;;;4936731;29;20478;-60
2023/07/19 12:00:16;;;;;;;7.90;7.20;;;27.70;2.30;;;;;;4936500;29;20925;-61
2023/07/19 12:02:46;;;;;;;8.33;7.87;;;27.60;2.10;;;;;;4936757;29;20793;-60
2023/07/19 12:05:20;;;;;;;8.07;7.77;;;27.70;1.70;;;;;;4936497;28;20426;-60
2023/07/19 12:07:50;;;;;;;7.40;7.10;;;27.80;1.40;;;;;;4936667;29;20414;-60
2023/07/19 12:10:17;;;;;;;7.37;7.03;;;27.90;1.80;;;;;;4936237;29;20495;-60
2023/07/19 12:12:44;;;;;;;8.70;8.20;;;28.00;1.80;;;;;;4936483;29;20431;-60
2023/07/19 12:15:11;;;;;;;8.77;8.37;;;28.00;1.70;;;;;;4936301;29;20411;-60
2023/07/19 12:17:37;;;;;;;9.13;8.30;;;28.10;2.00;;;;;;4936390;29;20928;-60
2023/07/19 12:20:07;;;;;;;8.50;8.10;;;28.10;1.80;;;;;;4936149;29;20412;-59
2023/07/19 12:22:35;;;;;;;7.90;7.50;;;28.30;1.30;;;;;;4936449;29;20795;-60
2023/07/19 12:25:01;;;;;;;7.83;7.33;;;28.40;1.00;;;;;;4936228;29;20419;-63
2023/07/19 12:27:27;;;;;;;8.23;7.60;;;28.30;1.30;;;;;;4936286;29;20428;-64
2023/07/19 12:29:53;;;;;;;7.60;7.23;;;28.60;1.00;;;;;;4936121;29;20970;-64
2023/07/19 12:32:19;;;;;;;8.40;7.60;;;28.70;1.00;;;;;;4936042;29;20629;-64
2023/07/19 12:34:45;;;;;;;8.40;7.80;;;28.60;1.30;;;;;;4936557;29;20508;-65
2023/07/19 12:37:12;;;;;;;8.17;7.83;;;28.60;1.00;;;;;;4936005;29;20194;-64